Time;durP1;ratioP1;P1;durP2;ratioP2;P2;SDS_P1;SDS_P2;PMS_P1;PMS_P2;Temp;Humidity;BMP_temperature;BMP_pressure;BME280_temperature;BME280_humidity;BME280_pressure;Samples;Min_cycle;Max_cycle;Signal;HPM_P1;HPM_P2
2022/10/11 00:00:35;;;;;;;15.97;13.00;;;8.90;99.90;;;;;;5055992;28;20173;-53
2022/10/11 00:03:02;;;;;;;14.50;12.53;;;8.90;99.90;;;;;;5065660;28;20521;-51
2022/10/11 00:05:27;;;;;;;18.00;14.80;;;8.80;99.90;;;;;;5066070;28;20479;-49
2022/10/11 00:07:53;;;;;;;16.63;13.97;;;8.80;99.90;;;;;;5067016;28;20465;-54
2022/10/11 00:10:19;;;;;;;23.37;15.10;;;8.80;99.90;;;;;;5066465;28;20435;-53
2022/10/11 00:12:46;;;;;;;16.60;14.67;;;8.80;99.90;;;;;;5064228;28;20670;-53
2022/10/11 00:15:17;;;;;;;15.67;13.80;;;8.90;99.90;;;;;;5064901;28;20434;-52
2022/10/11 00:17:43;;;;;;;17.63;14.00;;;8.90;99.90;;;;;;5070830;28;20454;-50
2022/10/11 00:20:10;;;;;;;18.73;14.33;;;9.00;99.90;;;;;;5062367;28;20518;-49
2022/10/11 00:22:37;;;;;;;17.40;14.33;;;9.00;99.90;;;;;;5057156;28;20185;-50
2022/10/11 00:25:12;;;;;;;17.80;14.30;;;9.10;99.90;;;;;;5067244;28;20466;-54
2022/10/11 00:27:38;;;;;;;18.47;15.10;;;9.20;99.90;;;;;;5065617;28;20439;-48
2022/10/11 00:30:07;;;;;;;16.20;14.20;;;9.30;99.90;;;;;;5071207;28;20972;-53
2022/10/11 00:32:35;;;;;;;17.60;13.60;;;9.30;99.90;;;;;;5071479;28;20169;-50
2022/10/11 00:35:05;;;;;;;16.57;14.77;;;9.40;99.90;;;;;;5063238;28;20913;-49
2022/10/11 00:37:31;;;;;;;16.97;13.97;;;9.60;99.90;;;;;;5071024;28;20478;-51
2022/10/11 00:39:57;;;;;;;20.47;15.13;;;9.60;99.90;;;;;;5069354;28;20431;-50
2022/10/11 00:42:23;;;;;;;18.10;14.47;;;9.70;99.90;;;;;;5069166;28;20430;-53
2022/10/11 00:44:49;;;;;;;17.90;13.50;;;9.70;99.90;;;;;;5067942;28;20184;-50
2022/10/11 00:47:22;;;;;;;16.63;13.60;;;9.70;99.90;;;;;;5068961;28;20677;-51
2022/10/11 00:49:59;;;;;;;17.83;13.70;;;9.80;99.90;;;;;;5072186;28;20446;-50
2022/10/11 00:52:31;;;;;;;15.53;13.73;;;9.90;99.90;;;;;;5065022;28;21151;-52
2022/10/11 00:55:04;;;;;;;17.53;13.87;;;9.90;99.90;;;;;;5069968;28;20427;-52
2022/10/11 00:57:33;;;;;;;16.30;12.90;;;10.00;99.90;;;;;;5059254;28;21730;-53
2022/10/11 00:59:59;;;;;;;16.60;12.70;;;10.00;99.90;;;;;;5070337;28;20427;-49
2022/10/11 01:02:26;;;;;;;14.40;12.90;;;10.10;99.90;;;;;;5065441;28;20777;-53
2022/10/11 01:04:52;;;;;;;14.40;12.70;;;10.10;99.90;;;;;;5071215;28;20184;-52
2022/10/11 01:07:19;;;;;;;14.97;13.40;;;10.10;99.90;;;;;;5068818;28;20826;-49
2022/10/11 01:09:44;;;;;;;13.60;12.20;;;10.10;99.90;;;;;;5070910;28;20193;-48
2022/10/11 01:12:15;;;;;;;14.07;12.37;;;10.20;99.90;;;;;;5070497;28;20436;-49
2022/10/11 01:15:04;;;;;;;14.70;12.17;;;10.20;99.90;;;;;;5071240;28;20623;-53
2022/10/11 01:17:50;;;;;;;14.60;13.10;;;10.10;99.90;;;;;;5060697;28;20471;-49
2022/10/11 01:20:40;;;;;;;14.17;12.53;;;10.20;99.90;;;;;;5070917;28;20439;-47
2022/10/11 01:23:30;;;;;;;13.87;12.47;;;10.30;99.90;;;;;;5070293;28;20807;-50
2022/10/11 01:26:26;;;;;;;13.30;11.90;;;10.30;99.90;;;;;;5056849;28;20427;-55
2022/10/11 01:29:11;;;;;;;15.67;13.27;;;10.20;99.90;;;;;;5068066;28;20456;-47
2022/10/11 01:31:52;;;;;;;13.50;12.17;;;10.30;99.90;;;;;;5068782;28;20427;-48
2022/10/11 01:35:02;;;;;;;14.00;12.20;;;10.30;99.90;;;;;;5062505;28;20470;-52
2022/10/11 01:37:37;;;;;;;14.00;12.60;;;10.30;99.90;;;;;;5064196;28;20581;-51
2022/10/11 01:40:28;;;;;;;13.90;12.00;;;10.30;99.90;;;;;;5070900;28;20435;-48
2022/10/11 01:42:54;;;;;;;13.53;12.23;;;10.40;99.90;;;;;;5067692;28;20478;-47
2022/10/11 01:45:21;;;;;;;13.40;12.00;;;10.40;99.90;;;;;;5054425;28;20415;-47
2022/10/11 01:47:46;;;;;;;14.70;13.00;;;10.50;99.90;;;;;;5068845;28;20508;-45
2022/10/11 01:50:36;;;;;;;16.70;12.93;;;10.60;99.90;;;;;;5069394;28;21144;-46
2022/10/11 01:53:21;;;;;;;15.60;12.20;;;10.70;99.90;;;;;;5068394;28;20196;-50
2022/10/11 01:55:56;;;;;;;16.10;12.93;;;10.70;99.90;;;;;;5073683;28;20955;-46
2022/10/11 01:58:50;;;;;;;15.27;12.17;;;10.70;99.90;;;;;;5066133;28;20489;-46
2022/10/11 02:01:40;;;;;;;15.10;12.23;;;10.70;99.90;;;;;;5057890;28;22248;-47
2022/10/11 02:04:21;;;;;;;15.10;12.07;;;10.80;99.90;;;;;;5070123;28;20454;-48
2022/10/11 02:07:16;;;;;;;13.70;12.40;;;10.80;99.90;;;;;;5069042;28;20432;-48
2022/10/11 02:10:08;;;;;;;13.70;12.30;;;10.90;99.90;;;;;;5069018;28;20431;-46
2022/10/11 02:12:38;;;;;;;15.97;12.27;;;10.90;99.90;;;;;;5053109;28;20440;-46
2022/10/11 02:15:08;;;;;;;15.77;12.73;;;11.00;99.90;;;;;;5061094;28;20540;-48
2022/10/11 02:17:39;;;;;;;13.40;11.77;;;11.00;99.90;;;;;;5057220;28;21053;-47
2022/10/11 02:20:11;;;;;;;14.87;11.73;;;11.10;99.90;;;;;;5067194;28;20427;-50
2022/10/11 02:22:41;;;;;;;13.70;11.80;;;11.10;99.90;;;;;;5065503;28;20424;-47
2022/10/11 02:25:10;;;;;;;13.13;10.90;;;11.10;99.90;;;;;;5069090;28;20879;-51
2022/10/11 02:27:39;;;;;;;13.27;11.03;;;11.20;99.90;;;;;;5062714;28;20918;-46
2022/10/11 02:30:07;;;;;;;16.83;11.77;;;11.30;99.90;;;;;;5053405;28;20439;-46
2022/10/11 02:32:35;;;;;;;16.00;11.70;;;11.40;99.90;;;;;;5062119;28;20455;-47
2022/10/11 02:35:02;;;;;;;12.63;10.90;;;11.50;99.90;;;;;;5070434;28;21121;-47
2022/10/11 02:37:38;;;;;;;11.97;10.40;;;11.60;99.90;;;;;;5061224;28;21143;-46
2022/10/11 02:40:07;;;;;;;11.67;10.47;;;11.70;99.90;;;;;;5067741;28;20443;-46
2022/10/11 02:42:41;;;;;;;13.33;10.63;;;11.80;99.90;;;;;;5059551;28;20439;-48
2022/10/11 02:45:17;;;;;;;11.43;10.30;;;11.90;99.90;;;;;;5054260;28;20432;-46
2022/10/11 02:47:43;;;;;;;12.10;10.80;;;12.00;99.90;;;;;;5068088;28;20435;-48
2022/10/11 02:50:13;;;;;;;12.07;10.80;;;12.00;99.90;;;;;;5069195;28;20814;-48
2022/10/11 02:52:38;;;;;;;12.00;10.23;;;12.10;99.90;;;;;;5056990;28;20987;-44
2022/10/11 02:55:05;;;;;;;11.97;10.70;;;12.10;99.90;;;;;;5059834;28;20542;-50
2022/10/11 02:57:31;;;;;;;12.60;10.30;;;12.10;99.90;;;;;;5064270;28;20216;-44
2022/10/11 02:59:56;;;;;;;10.97;9.87;;;12.20;99.90;;;;;;5067084;28;21004;-48
2022/10/11 03:02:22;;;;;;;13.20;10.93;;;12.20;99.90;;;;;;5057835;28;20826;-48
2022/10/11 03:04:47;;;;;;;13.63;10.60;;;12.20;99.90;;;;;;5056044;28;20599;-48
2022/10/11 03:07:13;;;;;;;11.83;10.40;;;12.30;99.90;;;;;;5066041;28;20340;-49
2022/10/11 03:09:39;;;;;;;12.30;11.07;;;12.30;99.90;;;;;;5062901;28;20263;-47
2022/10/11 03:12:05;;;;;;;10.33;9.30;;;12.40;99.90;;;;;;5067378;28;20747;-45
2022/10/11 03:14:31;;;;;;;12.27;9.40;;;12.50;99.90;;;;;;5066779;28;20432;-45
2022/10/11 03:16:56;;;;;;;11.87;8.80;;;12.50;99.90;;;;;;5069042;28;20570;-51
2022/10/11 03:19:22;;;;;;;9.33;8.03;;;12.60;99.90;;;;;;5067852;28;20200;-45
2022/10/11 03:21:47;;;;;;;9.90;8.43;;;12.60;99.90;;;;;;5065081;28;20175;-47
2022/10/11 03:24:13;;;;;;;12.57;7.83;;;12.60;99.90;;;;;;5066928;28;20186;-47
2022/10/11 03:26:38;;;;;;;9.80;8.60;;;12.70;99.90;;;;;;5067848;28;20205;-47
2022/10/11 03:29:04;;;;;;;8.30;7.50;;;12.70;99.90;;;;;;5059418;28;20186;-47
2022/10/11 03:31:30;;;;;;;9.20;7.80;;;12.80;99.90;;;;;;5059018;28;20196;-47
2022/10/11 03:33:55;;;;;;;9.00;7.03;;;12.80;99.90;;;;;;5067950;28;20189;-49
2022/10/11 03:36:21;;;;;;;8.80;7.20;;;12.90;99.90;;;;;;5062401;28;20235;-44
2022/10/11 03:38:46;;;;;;;9.40;6.80;;;12.80;99.90;;;;;;5062771;28;20214;-45
2022/10/11 03:41:12;;;;;;;9.10;7.97;;;12.90;99.90;;;;;;5064606;28;20242;-49
2022/10/11 03:43:37;;;;;;;9.53;6.47;;;12.90;99.90;;;;;;5067029;28;20542;-47
2022/10/11 03:46:03;;;;;;;8.07;7.00;;;13.00;99.90;;;;;;5064051;28;20193;-50
2022/10/11 03:48:29;;;;;;;8.00;6.23;;;12.90;99.90;;;;;;5062068;28;20185;-51
2022/10/11 03:50:54;;;;;;;6.93;5.73;;;12.90;99.90;;;;;;5064088;28;20189;-44
2022/10/11 03:53:20;;;;;;;8.37;5.50;;;12.90;99.90;;;;;;5074146;28;20206;-48
2022/10/11 03:55:45;;;;;;;10.03;5.93;;;13.00;99.90;;;;;;5082033;28;20192;-47
2022/10/11 03:58:11;;;;;;;5.93;5.10;;;13.00;99.90;;;;;;5068187;28;20240;-46
2022/10/11 04:00:38;;;;;;;7.23;5.00;;;13.00;99.90;;;;;;5071155;28;20628;-45
2022/10/11 04:03:03;;;;;;;5.47;4.47;;;12.90;99.90;;;;;;5078745;28;20195;-51
2022/10/11 04:05:29;;;;;;;8.23;4.67;;;12.90;99.90;;;;;;5069351;28;20430;-47
2022/10/11 04:07:55;;;;;;;5.07;3.77;;;12.80;99.90;;;;;;5066827;28;20510;-48
2022/10/11 04:10:20;;;;;;;5.57;4.17;;;12.90;99.90;;;;;;5071853;28;20253;-45
2022/10/11 04:12:46;;;;;;;4.63;3.80;;;12.80;99.90;;;;;;5074306;28;20186;-50
2022/10/11 04:15:12;;;;;;;6.67;4.27;;;12.80;99.90;;;;;;5050781;28;20188;-49
2022/10/11 04:17:38;;;;;;;6.90;4.07;;;12.80;99.90;;;;;;5047126;28;20203;-47
2022/10/11 04:20:05;;;;;;;4.97;3.63;;;12.80;99.90;;;;;;5052745;28;20437;-46
2022/10/11 04:22:31;;;;;;;5.20;3.50;;;12.70;99.90;;;;;;5060873;28;20476;-44
2022/10/11 04:24:57;;;;;;;6.00;3.70;;;12.70;99.90;;;;;;5051461;28;20892;-46
2022/10/11 04:27:22;;;;;;;5.67;3.53;;;12.70;99.90;;;;;;5058213;28;20930;-45
2022/10/11 04:29:48;;;;;;;5.27;3.23;;;12.60;99.90;;;;;;5048711;28;20471;-46
2022/10/11 04:32:14;;;;;;;4.07;3.30;;;12.60;99.90;;;;;;5055931;28;20237;-47
2022/10/11 04:34:39;;;;;;;4.20;3.30;;;12.60;99.90;;;;;;5055184;28;20177;-47
2022/10/11 04:37:05;;;;;;;3.30;2.87;;;12.50;99.90;;;;;;5055084;28;20275;-48
2022/10/11 04:39:30;;;;;;;5.10;3.50;;;12.50;99.90;;;;;;5047498;28;20216;-49
2022/10/11 04:41:56;;;;;;;6.33;3.03;;;12.50;99.90;;;;;;5058553;28;20186;-46
2022/10/11 04:44:21;;;;;;;8.13;3.03;;;12.50;99.90;;;;;;5059539;28;20177;-47
2022/10/11 04:46:47;;;;;;;4.87;3.07;;;12.40;99.90;;;;;;5071983;28;20188;-51
2022/10/11 04:49:13;;;;;;;6.40;3.60;;;12.40;99.90;;;;;;5074703;28;20185;-50
2022/10/11 04:51:38;;;;;;;6.23;3.07;;;12.40;99.90;;;;;;5072276;28;20536;-51
2022/10/11 04:54:04;;;;;;;5.63;3.07;;;12.40;99.90;;;;;;5077578;28;20177;-46
2022/10/11 04:56:30;;;;;;;5.80;3.20;;;12.30;99.90;;;;;;5077263;28;20243;-50
2022/10/11 04:58:55;;;;;;;5.63;3.50;;;12.30;99.90;;;;;;5070939;28;20216;-49
2022/10/11 05:01:21;;;;;;;7.23;3.13;;;12.20;99.90;;;;;;5072079;28;20182;-50
2022/10/11 05:03:47;;;;;;;6.53;3.20;;;12.30;99.90;;;;;;5080009;28;20212;-47
2022/10/11 05:06:12;;;;;;;5.33;3.20;;;12.30;99.90;;;;;;5057084;28;20186;-46
2022/10/11 05:08:38;;;;;;;3.20;2.70;;;12.20;99.90;;;;;;5065103;28;20434;-47
2022/10/11 05:11:06;;;;;;;6.50;3.43;;;12.20;99.90;;;;;;5070772;28;20185;-49
2022/10/11 05:13:33;;;;;;;5.30;3.30;;;12.20;99.90;;;;;;5065673;28;20177;-47
2022/10/11 05:15:59;;;;;;;5.67;3.20;;;12.20;99.90;;;;;;5068012;28;20441;-50
2022/10/11 05:18:25;;;;;;;8.00;3.80;;;12.20;99.90;;;;;;5070851;28;20553;-48
2022/10/11 05:21:16;;;;;;;9.83;5.03;;;12.10;99.90;;;;;;5056634;28;20438;-46
2022/10/11 05:23:42;;;;;;;4.90;2.90;;;12.10;99.90;;;;;;5059205;28;20440;-50
2022/10/11 05:26:08;;;;;;;7.33;3.53;;;12.00;99.90;;;;;;5069148;28;20428;-47
2022/10/11 05:28:33;;;;;;;11.20;5.30;;;12.00;99.90;;;;;;5070330;28;20471;-50
2022/10/11 05:30:59;;;;;;;6.53;4.13;;;12.00;99.90;;;;;;5057387;28;20189;-52
2022/10/11 05:33:24;;;;;;;10.60;3.67;;;11.90;99.90;;;;;;5070482;28;20186;-46
2022/10/11 05:35:50;;;;;;;6.33;3.73;;;11.90;99.90;;;;;;5069353;28;20185;-48
2022/10/11 05:38:16;;;;;;;6.93;3.97;;;11.90;99.90;;;;;;5071273;28;20576;-50
2022/10/11 05:40:42;;;;;;;11.73;4.23;;;11.80;99.90;;;;;;5068978;28;20189;-48
2022/10/11 05:43:08;;;;;;;10.27;3.90;;;11.80;99.90;;;;;;5054092;28;20451;-47
2022/10/11 05:45:41;;;;;;;14.60;5.23;;;11.70;99.90;;;;;;5062753;28;20246;-45
2022/10/11 05:48:08;;;;;;;10.97;5.17;;;11.70;99.90;;;;;;5069691;28;20589;-46
2022/10/11 05:50:35;;;;;;;9.40;4.30;;;11.60;99.90;;;;;;5063345;28;20795;-47
2022/10/11 05:53:01;;;;;;;7.13;3.90;;;11.60;99.90;;;;;;5068488;28;20969;-49
2022/10/11 05:55:26;;;;;;;10.40;5.13;;;11.60;99.90;;;;;;5062663;28;20439;-46
2022/10/11 05:57:56;;;;;;;8.97;4.07;;;11.50;99.90;;;;;;5060107;28;20469;-49
2022/10/11 06:00:23;;;;;;;9.57;4.50;;;11.40;99.90;;;;;;5069812;28;20784;-49
2022/10/11 06:02:49;;;;;;;6.53;4.60;;;11.40;99.90;;;;;;5069546;28;20766;-45
2022/10/11 06:05:15;;;;;;;8.90;4.20;;;11.30;99.90;;;;;;5069909;28;20473;-49
2022/10/11 06:07:40;;;;;;;8.57;3.60;;;11.10;99.90;;;;;;5065781;28;20277;-46
2022/10/11 06:10:07;;;;;;;4.37;3.73;;;11.00;99.90;;;;;;5053407;28;20481;-47
2022/10/11 06:12:33;;;;;;;8.40;3.33;;;11.00;99.90;;;;;;5065157;28;20189;-47
2022/10/11 06:14:58;;;;;;;8.30;4.00;;;10.90;99.90;;;;;;5060504;28;21196;-50
2022/10/11 06:17:24;;;;;;;7.93;4.10;;;10.80;99.90;;;;;;5063308;28;20184;-46
2022/10/11 06:19:50;;;;;;;6.00;3.20;;;10.70;99.90;;;;;;5068368;28;20173;-45
2022/10/11 06:22:16;;;;;;;4.83;3.30;;;10.60;99.90;;;;;;5066080;28;20577;-47
2022/10/11 06:24:42;;;;;;;7.83;3.70;;;10.60;99.90;;;;;;5060711;28;20937;-47
2022/10/11 06:27:08;;;;;;;9.37;3.83;;;10.50;99.90;;;;;;5061112;28;20431;-50
2022/10/11 06:29:34;;;;;;;7.23;3.50;;;10.40;99.90;;;;;;5068495;28;20268;-46
2022/10/11 06:32:00;;;;;;;7.63;3.90;;;10.40;99.90;;;;;;5069373;28;20423;-49
2022/10/11 06:34:26;;;;;;;7.17;3.70;;;10.40;99.90;;;;;;5068024;28;20516;-48
2022/10/11 06:36:52;;;;;;;7.37;4.93;;;10.40;99.90;;;;;;5058733;28;20274;-49
2022/10/11 06:39:18;;;;;;;8.70;4.07;;;10.40;99.90;;;;;;5068723;28;20469;-45
2022/10/11 06:41:43;;;;;;;6.50;4.30;;;10.50;99.90;;;;;;5068046;28;20627;-45
2022/10/11 06:44:10;;;;;;;9.53;4.10;;;10.50;99.90;;;;;;5069732;28;20249;-49
2022/10/11 06:46:36;;;;;;;11.13;3.60;;;10.50;99.90;;;;;;5066224;28;20192;-43
2022/10/11 06:49:02;;;;;;;6.70;4.03;;;10.60;99.90;;;;;;5069528;28;20420;-46
2022/10/11 06:51:29;;;;;;;9.10;4.80;;;10.60;99.90;;;;;;5068696;28;20432;-47
2022/10/11 06:53:56;;;;;;;12.83;4.50;;;10.70;99.90;;;;;;5068272;28;20443;-46
2022/10/11 06:56:24;;;;;;;11.30;4.30;;;10.70;99.90;;;;;;5069507;28;20430;-45
2022/10/11 06:58:52;;;;;;;8.47;4.00;;;10.80;99.90;;;;;;5069527;28;20457;-47
2022/10/11 07:01:20;;;;;;;10.53;4.20;;;10.80;99.90;;;;;;5076365;28;20455;-46
2022/10/11 07:03:46;;;;;;;9.17;4.70;;;10.80;99.90;;;;;;5069661;28;20769;-46
2022/10/11 07:06:14;;;;;;;7.30;4.80;;;10.90;99.90;;;;;;5062331;28;20422;-50
2022/10/11 07:08:40;;;;;;;10.30;4.43;;;11.00;99.90;;;;;;5059395;28;20506;-48
2022/10/11 07:11:09;;;;;;;6.60;4.60;;;11.00;99.90;;;;;;5069442;28;20411;-45
2022/10/11 07:13:35;;;;;;;8.70;4.93;;;11.00;99.90;;;;;;5057546;28;20178;-51
2022/10/11 07:16:03;;;;;;;8.87;4.43;;;11.10;99.90;;;;;;5068857;28;21059;-50
2022/10/11 07:18:29;;;;;;;6.03;4.43;;;11.20;99.90;;;;;;5058287;28;20532;-47
2022/10/11 07:20:54;;;;;;;8.77;4.87;;;11.30;99.90;;;;;;5056250;28;20414;-48
2022/10/11 07:23:20;;;;;;;10.90;4.80;;;11.40;99.90;;;;;;5068485;28;20443;-46
2022/10/11 07:25:46;;;;;;;10.60;4.40;;;11.50;99.90;;;;;;5070639;28;20208;-46
2022/10/11 07:28:12;;;;;;;9.83;5.07;;;11.50;99.90;;;;;;5069035;28;20231;-45
2022/10/11 07:30:40;;;;;;;8.83;4.73;;;11.60;99.90;;;;;;5068824;28;20201;-51
2022/10/11 07:33:05;;;;;;;10.33;4.70;;;11.70;99.90;;;;;;5068024;28;20427;-50
2022/10/11 07:35:34;;;;;;;11.10;3.90;;;11.80;99.90;;;;;;5066670;28;20421;-45
2022/10/11 07:38:00;;;;;;;8.67;4.60;;;11.90;99.90;;;;;;5066769;28;20778;-46
2022/10/11 07:40:25;;;;;;;8.80;5.00;;;12.00;99.90;;;;;;5068762;28;20420;-47
2022/10/11 07:42:51;;;;;;;8.60;4.27;;;12.10;99.90;;;;;;5068686;28;20265;-47
2022/10/11 07:45:16;;;;;;;10.23;5.50;;;12.20;99.90;;;;;;5068694;28;20184;-49
2022/10/11 07:47:45;;;;;;;8.73;4.50;;;12.30;99.90;;;;;;5065725;28;20189;-47
2022/10/11 07:50:11;;;;;;;8.97;4.37;;;12.50;99.90;;;;;;5068736;28;20582;-48
2022/10/11 07:52:37;;;;;;;8.67;4.83;;;12.70;99.90;;;;;;5066608;28;20420;-47
2022/10/11 07:55:02;;;;;;;8.60;4.57;;;12.90;99.90;;;;;;5067604;28;20437;-46
2022/10/11 07:57:28;;;;;;;7.60;4.07;;;13.40;99.90;;;;;;5062074;28;20630;-49
2022/10/11 07:59:53;;;;;;;8.37;4.47;;;13.70;99.90;;;;;;5068473;28;20181;-52
2022/10/11 08:02:19;;;;;;;5.90;3.97;;;14.20;99.90;;;;;;5068982;28;20181;-46
2022/10/11 08:04:44;;;;;;;5.43;4.10;;;14.80;99.90;;;;;;5068830;28;20200;-50
2022/10/11 08:07:10;;;;;;;7.93;4.70;;;15.40;99.90;;;;;;5068666;28;20181;-48
2022/10/11 08:09:36;;;;;;;6.63;5.23;;;16.00;99.90;;;;;;5068983;28;20259;-46
2022/10/11 08:12:01;;;;;;;7.30;5.30;;;16.50;99.90;;;;;;5068828;28;20205;-50
2022/10/11 08:14:27;;;;;;;9.27;4.17;;;17.00;99.90;;;;;;5058349;28;20226;-48
2022/10/11 08:16:52;;;;;;;7.00;5.63;;;17.50;99.20;;;;;;5048917;28;20240;-47
2022/10/11 08:19:18;;;;;;;7.13;4.43;;;18.40;97.60;;;;;;5058941;28;20203;-51
2022/10/11 08:21:43;;;;;;;8.17;4.97;;;18.90;94.30;;;;;;5052281;28;20192;-50
2022/10/11 08:24:12;;;;;;;9.33;4.87;;;19.60;93.30;;;;;;5056961;28;20186;-55
2022/10/11 08:26:38;;;;;;;6.70;4.70;;;19.80;90.10;;;;;;5074434;28;20219;-53
2022/10/11 08:29:04;;;;;;;9.00;5.50;;;20.10;86.30;;;;;;5048228;28;20940;-54
2022/10/11 08:31:30;;;;;;;9.03;4.93;;;20.40;82.10;;;;;;5053452;28;20205;-50
2022/10/11 08:33:56;;;;;;;7.80;5.50;;;20.80;80.30;;;;;;5062046;28;20426;-50
2022/10/11 08:36:22;;;;;;;7.87;5.40;;;21.00;76.90;;;;;;5057539;28;20477;-51
2022/10/11 08:38:47;;;;;;;7.37;5.40;;;21.10;73.70;;;;;;5069177;28;20662;-52
2022/10/11 08:41:27;;;;;;;8.93;5.33;;;21.20;71.30;;;;;;5057076;28;20186;-51
2022/10/11 08:44:11;;;;;;;5.80;5.20;;;21.50;68.90;;;;;;5063795;28;20823;-54
2022/10/11 08:46:40;;;;;;;8.03;5.37;;;22.00;69.70;;;;;;5072173;28;21042;-53
2022/10/11 08:49:08;;;;;;;6.37;4.33;;;22.20;64.10;;;;;;5069318;28;20453;-52
2022/10/11 08:51:46;;;;;;;7.17;4.73;;;22.70;61.20;;;;;;5061372;28;20431;-53
2022/10/11 08:54:37;;;;;;;5.60;5.00;;;22.80;59.80;;;;;;5052627;28;20922;-54
2022/10/11 08:57:05;;;;;;;5.70;5.10;;;23.00;57.30;;;;;;5055878;28;20432;-53
2022/10/11 08:59:43;;;;;;;6.40;5.37;;;23.00;56.70;;;;;;5070699;28;21111;-52
2022/10/11 09:02:34;;;;;;;7.93;5.60;;;22.70;56.80;;;;;;5057548;28;20532;-52
2022/10/11 09:05:02;;;;;;;8.70;5.33;;;22.10;57.20;;;;;;5063460;28;21236;-49
2022/10/11 09:08:05;;;;;;;7.67;5.60;;;21.40;59.10;;;;;;5064850;28;20442;-53
2022/10/11 09:10:42;;;;;;;6.87;5.57;;;21.10;60.40;;;;;;5068516;28;20500;-53
2022/10/11 09:13:30;;;;;;;6.07;5.47;;;21.10;60.30;;;;;;5071439;28;20411;-52
2022/10/11 09:16:10;;;;;;;6.00;5.40;;;21.70;60.40;;;;;;5062951;28;20485;-53
2022/10/11 09:19:07;;;;;;;7.13;5.30;;;22.30;56.80;;;;;;5056002;28;20447;-52
2022/10/11 09:22:07;;;;;;;5.07;4.57;;;23.00;54.50;;;;;;5063297;28;20427;-52
2022/10/11 09:24:44;;;;;;;6.37;4.87;;;23.50;53.20;;;;;;5068579;28;20706;-51
2022/10/11 09:27:22;;;;;;;7.10;5.00;;;24.10;50.50;;;;;;5052159;28;20961;-52
2022/10/11 09:29:53;;;;;;;7.53;5.43;;;24.30;49.60;;;;;;5051781;28;20906;-51
2022/10/11 09:32:20;;;;;;;5.93;5.03;;;24.30;47.00;;;;;;5068535;28;20435;-50
2022/10/11 09:35:08;;;;;;;9.37;5.23;;;23.60;47.50;;;;;;5061903;28;20415;-54
2022/10/11 09:37:53;;;;;;;7.80;5.20;;;22.90;50.90;;;;;;5066412;28;20475;-51
2022/10/11 09:40:37;;;;;;;7.50;4.90;;;22.70;50.70;;;;;;5021159;28;20439;-55
2022/10/11 09:43:04;;;;;;;9.03;4.50;;;22.50;52.00;;;;;;5067176;28;20530;-49
2022/10/11 09:45:30;;;;;;;6.30;5.30;;;22.60;51.90;;;;;;5067282;28;20506;-51
2022/10/11 09:47:59;;;;;;;7.33;5.27;;;22.00;51.20;;;;;;5068226;28;20194;-51
2022/10/11 09:50:27;;;;;;;7.83;5.70;;;21.80;53.20;;;;;;5064497;28;20189;-54
2022/10/11 09:52:59;;;;;;;9.13;4.83;;;21.40;53.00;;;;;;5062916;28;20537;-53
2022/10/11 09:55:33;;;;;;;6.27;5.07;;;21.10;53.20;;;;;;5070840;28;20416;-52
2022/10/11 09:57:59;;;;;;;8.30;4.93;;;21.70;55.80;;;;;;5069295;28;21016;-55
2022/10/11 10:00:27;;;;;;;5.63;5.03;;;22.20;52.80;;;;;;5066411;28;20526;-53
2022/10/11 10:02:58;;;;;;;5.13;4.60;;;22.50;51.00;;;;;;5069913;28;20268;-56
2022/10/11 10:05:34;;;;;;;5.83;4.40;;;23.00;49.00;;;;;;5068606;28;20439;-56
2022/10/11 10:08:08;;;;;;;7.50;4.40;;;22.80;47.10;;;;;;5069795;28;20491;-51
2022/10/11 10:10:51;;;;;;;5.07;4.60;;;22.20;47.80;;;;;;5069587;28;20941;-53
2022/10/11 10:13:22;;;;;;;4.77;4.30;;;22.00;48.50;;;;;;5064798;28;20443;-56
2022/10/11 10:15:52;;;;;;;6.97;4.20;;;22.00;47.20;;;;;;5058286;28;20462;-53
2022/10/11 10:18:22;;;;;;;5.43;3.60;;;21.40;48.00;;;;;;5056272;28;20459;-53
2022/10/11 10:20:54;;;;;;;6.53;4.60;;;21.10;49.50;;;;;;5061672;28;20430;-53
2022/10/11 10:23:42;;;;;;;6.50;3.83;;;21.60;51.50;;;;;;5068342;28;20408;-54
2022/10/11 10:26:14;;;;;;;9.87;4.17;;;22.50;49.40;;;;;;5081606;28;20529;-55
2022/10/11 10:28:59;;;;;;;7.33;4.90;;;23.90;46.60;;;;;;5066639;28;20432;-51
2022/10/11 10:31:32;;;;;;;6.50;4.53;;;24.70;43.80;;;;;;5065173;28;20485;-49
2022/10/11 10:33:58;;;;;;;5.40;4.00;;;24.70;41.90;;;;;;5064548;28;20441;-55
2022/10/11 10:36:35;;;;;;;4.90;4.40;;;23.80;43.50;;;;;;5071501;28;20550;-52
2022/10/11 10:39:12;;;;;;;5.30;4.80;;;23.30;43.10;;;;;;5069479;28;20219;-53
2022/10/11 10:41:38;;;;;;;7.63;6.00;;;22.40;43.50;;;;;;5083284;28;20430;-52
2022/10/11 10:44:04;;;;;;;5.63;4.83;;;21.60;45.70;;;;;;5065371;28;20443;-51
2022/10/11 10:47:21;;;;;;;8.10;5.40;;;20.80;47.80;;;;;;5074255;28;21077;-52
2022/10/11 10:50:01;;;;;;;6.53;5.20;;;20.80;49.50;;;;;;5036514;28;20451;-50
2022/10/11 10:52:47;;;;;;;5.77;4.80;;;21.90;47.80;;;;;;5068325;28;20423;-53
2022/10/11 10:55:22;;;;;;;5.37;4.87;;;22.90;43.70;;;;;;5063542;28;21126;-52
2022/10/11 10:58:18;;;;;;;5.40;4.10;;;23.80;43.20;;;;;;5066936;28;20462;-51
2022/10/11 11:00:58;;;;;;;6.40;3.90;;;24.40;40.40;;;;;;5066824;28;20438;-50
2022/10/11 11:03:51;;;;;;;6.10;4.63;;;24.60;38.40;;;;;;5058953;28;20399;-52
2022/10/11 11:06:45;;;;;;;4.63;4.10;;;23.90;37.90;;;;;;5065683;28;20439;-53
2022/10/11 11:09:45;;;;;;;7.17;4.80;;;23.10;38.60;;;;;;5067668;28;20435;-53
2022/10/11 11:12:33;;;;;;;6.33;4.80;;;22.20;41.00;;;;;;5053713;28;20914;-56
2022/10/11 11:15:10;;;;;;;6.80;4.93;;;21.50;40.90;;;;;;5063343;28;20903;-51
2022/10/11 11:17:57;;;;;;;6.03;5.13;;;20.80;42.90;;;;;;5064011;28;20434;-54
2022/10/11 11:20:42;;;;;;;5.50;4.30;;;20.20;44.20;;;;;;5058374;28;20946;-49
2022/10/11 11:23:18;;;;;;;5.70;4.70;;;20.10;46.10;;;;;;5062860;28;20436;-54
2022/10/11 11:26:03;;;;;;;6.17;4.53;;;20.50;44.80;;;;;;5071113;28;20402;-53
2022/10/11 11:28:56;;;;;;;5.30;4.80;;;20.50;43.80;;;;;;5052387;28;20513;-48
2022/10/11 11:32:00;;;;;;;5.47;4.93;;;20.50;44.60;;;;;;5065253;28;20490;-53
2022/10/11 11:34:32;;;;;;;5.77;5.13;;;20.40;46.20;;;;;;5063567;28;20444;-53
2022/10/11 11:37:04;;;;;;;6.00;5.10;;;20.70;43.40;;;;;;5068883;28;20497;-53
2022/10/11 11:39:38;;;;;;;6.53;4.90;;;20.90;42.10;;;;;;5068165;28;20455;-56
2022/10/11 11:42:14;;;;;;;4.53;4.13;;;21.10;42.60;;;;;;5067635;28;20464;-53
2022/10/11 11:44:48;;;;;;;5.33;4.93;;;21.30;42.60;;;;;;5056061;28;20451;-55
2022/10/11 11:47:36;;;;;;;5.30;4.90;;;22.00;42.20;;;;;;5065606;28;20996;-53
2022/10/11 11:50:23;;;;;;;6.20;4.37;;;22.90;39.00;;;;;;5065814;28;20431;-54
2022/10/11 11:53:00;;;;;;;7.63;4.77;;;24.10;36.60;;;;;;5061868;28;20423;-56
2022/10/11 11:55:48;;;;;;;5.83;4.17;;;25.30;35.00;;;;;;5064228;28;20497;-53
2022/10/11 11:58:36;;;;;;;4.73;4.33;;;25.90;33.40;;;;;;5067098;28;20451;-55
2022/10/11 12:01:28;;;;;;;6.23;4.20;;;26.30;31.80;;;;;;5065642;28;20435;-55
2022/10/11 12:04:00;;;;;;;5.33;4.43;;;26.90;31.70;;;;;;5065386;28;20419;-50
2022/10/11 12:06:32;;;;;;;6.03;4.80;;;27.90;29.50;;;;;;5065876;28;20442;-54
2022/10/11 12:09:05;;;;;;;4.90;4.50;;;28.00;28.80;;;;;;5068517;28;20901;-54
2022/10/11 12:11:42;;;;;;;5.20;4.37;;;27.60;28.40;;;;;;5056699;28;20458;-53
2022/10/11 12:14:22;;;;;;;4.93;4.40;;;26.90;29.40;;;;;;5059832;28;20523;-56
2022/10/11 12:17:12;;;;;;;5.70;4.67;;;27.20;29.10;;;;;;5070178;28;20468;-56
2022/10/11 12:19:41;;;;;;;4.80;3.90;;;27.60;29.20;;;;;;5066832;28;21284;-56
2022/10/11 12:22:38;;;;;;;5.03;4.37;;;28.00;27.90;;;;;;5070148;28;20530;-55
2022/10/11 12:25:09;;;;;;;4.53;3.80;;;27.60;28.40;;;;;;5067924;28;20418;-53
2022/10/11 12:27:46;;;;;;;6.10;4.83;;;27.80;28.20;;;;;;5073743;28;20909;-55
2022/10/11 12:30:43;;;;;;;4.63;4.33;;;27.30;27.80;;;;;;5070388;28;20426;-48
2022/10/11 12:33:31;;;;;;;5.13;4.33;;;26.50;28.80;;;;;;5068644;28;20439;-50
2022/10/11 12:35:57;;;;;;;5.83;5.00;;;26.20;29.70;;;;;;5065933;28;20516;-53
2022/10/11 12:38:38;;;;;;;4.57;4.17;;;26.00;30.10;;;;;;5071684;28;20835;-56
2022/10/11 12:41:13;;;;;;;4.67;4.30;;;26.10;30.60;;;;;;5069598;28;20701;-52
2022/10/11 12:43:47;;;;;;;7.00;4.13;;;27.00;29.40;;;;;;5070892;28;20395;-54
2022/10/11 12:46:28;;;;;;;6.23;4.23;;;27.30;26.90;;;;;;5073490;28;20515;-53
2022/10/11 12:49:03;;;;;;;6.40;4.60;;;27.70;27.20;;;;;;5081716;28;20415;-56
2022/10/11 12:52:01;;;;;;;5.73;4.70;;;29.00;26.20;;;;;;5058256;28;20428;-55
2022/10/11 12:54:48;;;;;;;4.33;3.90;;;29.30;24.50;;;;;;5057897;28;20532;-53
2022/10/11 12:57:28;;;;;;;5.80;4.77;;;28.60;24.20;;;;;;5067864;28;20863;-55
2022/10/11 12:59:53;;;;;;;5.00;4.50;;;28.70;24.90;;;;;;5062015;28;20474;-55
2022/10/11 13:02:29;;;;;;;5.30;4.80;;;29.30;23.30;;;;;;5061352;28;20494;-53
2022/10/11 13:05:17;;;;;;;4.03;3.63;;;29.30;22.50;;;;;;5054428;28;20173;-50
2022/10/11 13:07:42;;;;;;;7.20;4.67;;;28.50;23.90;;;;;;5051696;28;20493;-53